Revelstoke Airport
CYRV : rendu visible

Aérodrome :











RETROUVEZ-NOUS SUR...

 
LOGIN :

S'inscrire | Disclaimer

   EN    FR    IT 

 









Légende :    VFR   VFR Marginal   IFR   IFR Intensif   IFR Très Intensif
Visi : 
Plafond : 
>= 8 km
>= 3000ft
5 à 8 km
1000 à 3000 ft
1500m à 5 km
500 à 1000 ft
800 à 1500m
200 à 500 ft
< 800m
< 200 ft
Symboles :   Orages  Brouillard  Fortes neiges  Fortes précipitations  Vent > 20 kt






- Altitude de l'aérodrome : 1459 ft
- Code IATA : YRV


CYRV - Revelstoke

DERNIER METAR :
  • 221455Z AUTO 16009KT 5SM -SN BKN010 OVC017 01/M01 A2993 RMK SLP158

METARs EXPIRÉS :
  • 221441Z AUTO 14007KT 9SM -SN FEW010 OVC017 01/M00 A2994 RMK SLP160
  • 221432Z AUTO 14007KT 040V170 9SM -SN -UP SCT012 OVC017 01/M00 A2994 RMK SLP160
  • 221401Z AUTO VRB03KT 6SM -SN BKN009 OVC015 00/M00 A2994 RMK SLP159
  • 221354Z AUTO VRB03KT 3SM -SN BKN009 OVC015 M00/M01 A2994 RMK SLP160
  • 221325Z AUTO 14006KT 080V160 3SM -SN OVC007 00/M01 A2994 RMK SLP161
  • 221300Z AUTO 00000KT 1 1/4SM -SN OVC005 M00/M01 A2996 RMK SLP167
  • 221229Z AUTO VRB04KT 2 1/4SM -SN BKN007 OVC014 M00/M01 A2996 RMK VIS VRB 1 1/2-3 SLP169

TAF N/A



MET'MAP, la Météo Aéronautique d'un coup d'oeil ! - Copyright ORBIFLY Décembre 2007 - Disclaimer

ORBIFLY MET'MAP TEAM :

Programmation & Développement : Alexandra Zaïnal
Sur une idée originale de : Baudouin d'Aumeries
Assistance à la programmation : Marc-Olivier Méhu
Soutien technique & logistique : Manuel Goepfert

Contact : metmap@orbifly.com




SOURCES & CREDITS :

   NOAA       Earth
Advisory